createdAt,value
2022-11-15T00:01:10.962Z,98446.31
2022-11-15T00:03:37.547Z,98439.94
2022-11-15T00:06:05.375Z,98441.72
2022-11-15T00:08:33.371Z,98444.41
2022-11-15T00:11:02.361Z,98431.06
2022-11-15T00:13:30.424Z,98435.16
2022-11-15T00:16:01.994Z,98439.34
2022-11-15T00:18:29.911Z,98433.00
2022-11-15T00:20:57.615Z,98432.47
2022-11-15T00:23:24.264Z,98422.72
2022-11-15T00:25:59.096Z,98424.69
2022-11-15T00:28:26.736Z,98430.31
2022-11-15T00:30:53.596Z,98420.50
2022-11-15T00:33:20.248Z,98422.34
2022-11-15T00:35:47.348Z,98419.00
2022-11-15T00:38:13.946Z,98411.97
2022-11-15T00:40:40.651Z,98423.22
2022-11-15T00:43:07.245Z,98417.78
2022-11-15T00:45:34.298Z,98419.09
2022-11-15T00:48:00.872Z,98412.91
2022-11-15T00:50:27.449Z,98398.28
2022-11-15T00:52:54.036Z,98411.09
2022-11-15T00:55:21.047Z,98405.56
2022-11-15T00:57:48.017Z,98403.19
2022-11-15T01:00:15.100Z,98397.00
2022-11-15T01:02:41.694Z,98389.81
2022-11-15T01:05:09.261Z,98392.81
2022-11-15T01:07:36.405Z,98396.56
2022-11-15T01:10:04.411Z,98394.59
2022-11-15T01:12:31.402Z,98400.13
2022-11-15T01:14:58.066Z,98395.53
2022-11-15T01:17:25.340Z,98395.84
2022-11-15T01:19:51.933Z,98400.00
2022-11-15T01:22:18.597Z,98402.09
2022-11-15T01:24:48.159Z,98405.84
2022-11-15T01:27:14.776Z,98392.41
2022-11-15T01:29:41.366Z,98391.94
2022-11-15T01:32:08.100Z,98396.41
2022-11-15T01:34:34.915Z,98397.28
2022-11-15T01:37:02.150Z,98386.84
2022-11-15T01:39:28.788Z,98385.50
2022-11-15T01:41:55.568Z,98383.44
2022-11-15T01:44:55.585Z,98384.19
2022-11-15T01:47:25.988Z,98374.91
2022-11-15T01:50:05.563Z,98382.56
2022-11-15T01:52:34.963Z,98379.41
2022-11-15T01:55:10.294Z,98374.19
2022-11-15T01:57:38.384Z,98386.25
2022-11-15T02:00:07.138Z,98382.84
2022-11-15T02:02:36.700Z,98376.56
2022-11-15T02:05:04.009Z,98373.41
2022-11-15T02:07:33.588Z,98359.44
2022-11-15T02:10:08.384Z,98367.47
2022-11-15T02:12:35.540Z,98369.88
2022-11-15T02:15:03.740Z,98369.88
2022-11-15T02:17:55.224Z,98365.06
2022-11-15T02:20:41.813Z,98365.81
2022-11-15T02:23:42.921Z,98366.44
2022-11-15T02:26:58.452Z,98353.75
2022-11-15T02:30:03.975Z,98357.66
2022-11-15T02:32:43.468Z,98352.41
2022-11-15T02:35:39.072Z,98349.72
2022-11-15T02:38:52.627Z,98345.09
2022-11-15T02:41:48.112Z,98340.63
2022-11-15T02:44:27.720Z,98342.41
2022-11-15T02:47:16.000Z,98343.31
2022-11-15T02:49:54.020Z,98340.88
2022-11-15T02:52:28.385Z,98333.16
2022-11-15T02:54:57.348Z,98329.84
2022-11-15T02:57:42.852Z,98331.50
2022-11-15T03:00:14.631Z,98330.50
2022-11-15T03:03:25.955Z,98328.97
2022-11-15T03:06:37.143Z,98329.53
2022-11-15T03:09:36.886Z,98338.38
2022-11-15T03:12:34.427Z,98338.81
2022-11-15T03:15:22.295Z,98333.75
2022-11-15T03:18:25.836Z,98329.56
2022-11-15T03:20:53.778Z,98320.47
2022-11-15T03:23:20.602Z,98325.25
2022-11-15T03:25:54.664Z,98326.31
2022-11-15T03:28:32.933Z,98335.53
2022-11-15T03:31:28.522Z,98330.34
2022-11-15T03:33:58.552Z,98328.22
2022-11-15T03:36:27.749Z,98328.97
2022-11-15T03:39:05.487Z,98329.88
2022-11-15T03:41:50.447Z,98331.81
2022-11-15T03:44:32.994Z,98328.84
2022-11-15T03:47:23.451Z,98327.34
2022-11-15T03:50:01.377Z,98326.44
2022-11-15T03:52:34.548Z,98331.97
2022-11-15T03:55:04.188Z,98317.22
2022-11-15T03:57:30.996Z,98324.19
2022-11-15T03:59:57.600Z,98324.34
2022-11-15T04:02:24.255Z,98328.06
2022-11-15T04:04:52.660Z,98324.94
2022-11-15T04:07:19.339Z,98331.34
2022-11-15T04:10:04.313Z,98329.84
2022-11-15T04:12:38.792Z,98328.38
2022-11-15T04:15:13.256Z,98328.38
2022-11-15T04:17:42.260Z,98331.53
2022-11-15T04:20:37.071Z,98332.88
2022-11-15T04:23:30.293Z,98328.72
2022-11-15T04:26:01.248Z,98325.56
2022-11-15T04:28:29.077Z,98328.97
2022-11-15T04:30:55.804Z,98328.56
2022-11-15T04:33:23.250Z,98321.66
2022-11-15T04:36:19.033Z,98324.94
2022-11-15T04:38:45.637Z,98317.50
2022-11-15T04:41:12.206Z,98327.69
2022-11-15T04:43:38.763Z,98314.59
2022-11-15T04:46:05.485Z,98313.16
2022-11-15T04:48:32.412Z,98315.97
2022-11-15T04:50:59.199Z,98304.44
2022-11-15T04:53:25.821Z,98301.88
2022-11-15T04:55:52.399Z,98307.53
2022-11-15T04:58:18.961Z,98303.06
2022-11-15T05:00:45.584Z,98300.31
2022-11-15T05:03:31.277Z,98306.38
2022-11-15T05:05:59.076Z,98292.59
2022-11-15T05:08:26.208Z,98306.25
2022-11-15T05:10:52.848Z,98295.28
2022-11-15T05:13:19.557Z,98293.78
2022-11-15T05:15:48.351Z,98268.22
2022-11-15T05:18:17.239Z,98279.13
2022-11-15T05:20:47.415Z,98274.94
2022-11-15T05:23:13.991Z,98284.09
2022-11-15T05:25:40.613Z,98270.94
2022-11-15T05:28:07.317Z,98270.09
2022-11-15T05:30:33.958Z,98272.09
2022-11-15T05:33:01.171Z,98268.38
2022-11-15T05:35:42.787Z,98259.69
2022-11-15T05:38:09.828Z,98264.00
2022-11-15T05:40:36.656Z,98265.19
2022-11-15T05:43:05.391Z,98256.06
2022-11-15T05:45:34.476Z,98260.88
2022-11-15T05:48:08.491Z,98262.38
2022-11-15T05:50:37.754Z,98258.88
2022-11-15T05:53:07.329Z,98262.03
2022-11-15T05:55:34.292Z,98262.78
2022-11-15T05:58:01.805Z,98251.97
2022-11-15T06:00:29.242Z,98259.13
2022-11-15T06:02:55.817Z,98259.34
2022-11-15T06:05:22.410Z,98258.69
2022-11-15T06:07:48.966Z,98258.47
2022-11-15T06:10:15.668Z,98259.72
2022-11-15T06:12:42.268Z,98259.38
2022-11-15T06:15:09.602Z,98270.50
2022-11-15T06:17:36.217Z,98266.56
2022-11-15T06:20:03.050Z,98277.41
2022-11-15T06:22:29.697Z,98275.31
2022-11-15T06:24:59.172Z,98282.59
2022-11-15T06:27:28.001Z,98284.31
2022-11-15T06:29:54.573Z,98291.59
2022-11-15T06:32:22.270Z,98286.06
2022-11-15T06:34:48.845Z,98293.53
2022-11-15T06:37:15.413Z,98309.72
2022-11-15T06:39:42.022Z,98313.47
2022-11-15T06:42:11.743Z,98300.00
2022-11-15T06:44:38.326Z,98296.25
2022-11-15T06:47:04.985Z,98298.16
2022-11-15T06:49:31.653Z,98296.41
2022-11-15T06:51:59.208Z,98294.41
2022-11-15T06:54:25.937Z,98293.19
2022-11-15T06:56:52.505Z,98284.81
2022-11-15T06:59:19.177Z,98288.28
2022-11-15T07:01:45.841Z,98286.47
2022-11-15T07:04:16.516Z,98288.44
2022-11-15T07:06:43.126Z,98278.97
2022-11-15T07:09:09.732Z,98279.22
2022-11-15T07:11:36.435Z,98284.78
2022-11-15T07:14:03.172Z,98279.47
2022-11-15T07:16:32.832Z,98282.53
2022-11-15T07:18:59.650Z,98292.44
2022-11-15T07:21:27.685Z,98293.47
2022-11-15T07:23:54.613Z,98285.66
2022-11-15T07:26:21.409Z,98293.34
2022-11-15T07:28:48.129Z,98286.78
2022-11-15T07:31:14.730Z,98295.81
2022-11-15T07:33:42.143Z,98293.16
2022-11-15T07:36:09.642Z,98295.94
2022-11-15T07:38:42.417Z,98293.72
2022-11-15T07:41:10.131Z,98291.38
2022-11-15T07:43:36.790Z,98296.44
2022-11-15T07:46:10.055Z,98295.91
2022-11-15T07:48:44.477Z,98289.97
2022-11-15T07:51:14.870Z,98297.28
2022-11-15T07:53:42.935Z,98296.28
2022-11-15T07:56:10.310Z,98297.50
2022-11-15T07:58:37.250Z,98311.97
2022-11-15T08:01:06.145Z,98312.88
2022-11-15T08:03:33.751Z,98314.03
2022-11-15T08:06:00.854Z,98307.50
2022-11-15T08:08:27.519Z,98295.41
2022-11-15T08:10:54.693Z,98285.31
2022-11-15T08:13:22.147Z,98288.41
2022-11-15T08:15:51.157Z,98295.88
2022-11-15T08:18:21.409Z,98295.13
2022-11-15T08:20:47.994Z,98295.88
2022-11-15T08:23:14.747Z,98293.19
2022-11-15T08:25:42.386Z,98291.66
2022-11-15T08:28:11.661Z,98297.47
2022-11-15T08:30:42.826Z,98292.88
2022-11-15T08:33:14.322Z,98295.84
2022-11-15T08:35:43.157Z,98292.13
2022-11-15T08:38:10.098Z,98288.81
2022-11-15T08:40:37.347Z,98289.66
2022-11-15T08:43:04.492Z,98292.03
2022-11-15T08:45:32.620Z,98287.09
2022-11-15T08:48:04.082Z,98287.06
2022-11-15T08:50:30.963Z,98292.38
2022-11-15T08:52:57.560Z,98283.56
2022-11-15T08:55:24.917Z,98273.03
2022-11-15T08:57:51.748Z,98269.69
2022-11-15T09:00:20.649Z,98278.81
2022-11-15T09:02:47.264Z,98281.19
2022-11-15T09:05:14.049Z,98283.00
2022-11-15T09:07:40.609Z,98282.09
2022-11-15T09:10:07.804Z,98277.22
2022-11-15T09:12:34.395Z,98282.53
2022-11-15T09:15:00.961Z,98280.75
2022-11-15T09:17:30.529Z,98280.00
2022-11-15T09:19:57.151Z,98272.41
2022-11-15T09:22:23.812Z,98272.47
2022-11-15T09:24:50.404Z,98272.91
2022-11-15T09:27:16.977Z,98272.97
2022-11-15T09:29:43.564Z,98275.00
2022-11-15T09:32:10.513Z,98275.00
2022-11-15T09:34:37.290Z,98273.81
2022-11-15T09:37:03.877Z,98267.59
2022-11-15T09:39:30.543Z,98273.13
2022-11-15T09:42:26.436Z,98273.50
2022-11-15T09:45:14.394Z,98260.84
2022-11-15T09:48:13.093Z,98265.47
2022-11-15T09:51:00.773Z,98267.34
2022-11-15T09:54:13.602Z,98266.25
2022-11-15T09:56:29.075Z,98268.41
2022-11-15T09:59:20.418Z,98256.00
2022-11-15T10:02:08.796Z,98264.34
2022-11-15T10:04:38.448Z,98257.91
2022-11-15T10:07:26.329Z,98252.47
2022-11-15T10:10:27.450Z,98247.16
2022-11-15T10:12:54.419Z,98239.72
2022-11-15T10:15:23.639Z,98238.16
2022-11-15T10:18:14.368Z,98237.84
2022-11-15T10:21:03.571Z,98239.13
2022-11-15T10:23:32.684Z,98227.44
2022-11-15T10:26:06.677Z,98218.50
2022-11-15T10:28:34.229Z,98222.50
2022-11-15T10:31:05.664Z,98222.25
2022-11-15T10:33:38.052Z,98215.22
2022-11-15T10:36:13.188Z,98217.34
2022-11-15T10:38:52.002Z,98221.28
2022-11-15T10:41:27.380Z,98211.91
2022-11-15T10:44:22.374Z,98213.41
2022-11-15T10:46:58.001Z,98222.16
2022-11-15T10:49:30.104Z,98212.41
2022-11-15T10:52:20.223Z,98200.75
2022-11-15T10:54:56.359Z,98194.28
2022-11-15T10:57:27.956Z,98191.06
2022-11-15T10:59:59.161Z,98187.63
2022-11-15T11:02:33.586Z,98176.94
2022-11-15T11:05:02.488Z,98180.41
2022-11-15T11:07:36.677Z,98164.19
2022-11-15T11:10:49.841Z,98163.22
2022-11-15T11:13:25.664Z,98160.22
2022-11-15T11:16:05.948Z,98148.44
2022-11-15T11:18:50.513Z,98158.13
2022-11-15T11:21:40.157Z,98151.13
2022-11-15T11:24:45.826Z,98145.44
2022-11-15T11:27:29.895Z,98141.38
2022-11-15T11:30:17.065Z,98126.91
2022-11-15T11:33:07.552Z,98127.34
2022-11-15T11:36:07.632Z,98119.00
2022-11-15T11:39:20.673Z,98124.53
2022-11-15T11:42:34.958Z,98110.13
2022-11-15T11:45:14.463Z,98105.78
2022-11-15T11:48:02.913Z,98101.59
2022-11-15T11:50:29.812Z,98110.00
2022-11-15T11:53:24.521Z,98106.75
2022-11-15T11:55:55.482Z,98108.16
2022-11-15T11:58:35.524Z,98112.75
2022-11-15T12:01:31.177Z,98109.56
2022-11-15T12:04:17.045Z,98112.00
2022-11-15T12:06:56.962Z,98118.63
2022-11-15T12:09:50.378Z,98110.19
2022-11-15T12:12:32.585Z,98101.53
2022-11-15T12:15:20.375Z,98087.47
2022-11-15T12:17:47.561Z,98098.47
2022-11-15T12:20:25.128Z,98092.88
2022-11-15T12:23:06.952Z,98089.63
2022-11-15T12:25:59.972Z,98086.19
2022-11-15T12:29:07.372Z,98084.66
2022-11-15T12:31:52.957Z,98074.16
2022-11-15T12:34:22.960Z,98076.50
2022-11-15T12:36:51.981Z,98068.78
2022-11-15T12:39:19.902Z,98074.19
2022-11-15T12:41:55.672Z,98073.88
2022-11-15T12:44:31.515Z,98074.84
2022-11-15T12:46:58.059Z,98072.72
2022-11-15T12:49:24.579Z,98083.09
2022-11-15T12:51:52.801Z,98073.38
2022-11-15T12:54:22.551Z,98070.81
2022-11-15T12:57:04.443Z,98067.28
2022-11-15T12:59:56.191Z,98064.19
2022-11-15T13:02:25.920Z,98042.53
2022-11-15T13:04:55.529Z,98040.56
2022-11-15T13:07:40.422Z,98041.25
2022-11-15T13:10:12.960Z,98036.88
2022-11-15T13:12:41.391Z,98034.09
2022-11-15T13:15:13.918Z,98035.91
2022-11-15T13:17:47.090Z,98036.97
2022-11-15T13:20:16.624Z,98035.38
2022-11-15T13:23:04.844Z,98029.03
2022-11-15T13:25:37.885Z,98020.91
2022-11-15T13:28:10.558Z,98022.41
2022-11-15T13:30:38.125Z,98016.00
2022-11-15T13:33:22.128Z,98009.53
2022-11-15T13:35:55.568Z,98005.31
2022-11-15T13:38:25.283Z,98008.06
2022-11-15T13:40:52.299Z,98009.69
2022-11-15T13:43:30.847Z,98012.78
2022-11-15T13:46:19.125Z,98005.97
2022-11-15T13:48:52.045Z,98000.63
2022-11-15T13:51:38.120Z,98009.91
2022-11-15T13:54:39.302Z,98001.16
2022-11-15T13:57:15.620Z,98000.91
2022-11-15T13:59:54.078Z,98000.16
2022-11-15T14:02:31.774Z,97995.38
2022-11-15T14:05:15.608Z,97981.25
2022-11-15T14:08:13.429Z,97983.22
2022-11-15T14:10:40.920Z,97981.44
2022-11-15T14:13:29.168Z,97970.69
2022-11-15T14:16:13.448Z,97969.97
2022-11-15T14:18:50.443Z,97975.84
2022-11-15T14:21:18.841Z,97979.94
2022-11-15T14:23:46.686Z,97970.97
2022-11-15T14:26:35.261Z,97972.91
2022-11-15T14:29:25.561Z,97969.59
2022-11-15T14:32:19.993Z,97961.72
2022-11-15T14:34:47.993Z,97956.72
2022-11-15T14:37:35.856Z,97947.50
2022-11-15T14:40:06.053Z,97944.53
2022-11-15T14:42:33.249Z,97946.34
2022-11-15T14:44:59.881Z,97942.25
2022-11-15T14:47:26.443Z,97940.44
2022-11-15T14:49:53.130Z,97922.13
2022-11-15T14:52:33.045Z,97916.56
2022-11-15T14:55:02.140Z,97922.25
2022-11-15T14:57:29.591Z,97928.94
2022-11-15T14:59:56.448Z,97924.38
2022-11-15T15:02:25.735Z,97914.00
2022-11-15T15:04:52.555Z,97906.56
2022-11-15T15:07:19.651Z,97892.66
2022-11-15T15:09:47.335Z,97888.69
2022-11-15T15:12:23.536Z,97883.19
2022-11-15T15:14:51.470Z,97887.06
2022-11-15T15:17:18.493Z,97882.75
2022-11-15T15:19:45.111Z,97873.88
2022-11-15T15:22:18.380Z,97871.13
2022-11-15T15:24:46.092Z,97872.03
2022-11-15T15:27:13.677Z,97869.47
2022-11-15T15:29:40.969Z,97864.50
2022-11-15T15:32:07.877Z,97856.84
2022-11-15T15:34:34.893Z,97856.41
2022-11-15T15:37:24.973Z,97848.63
2022-11-15T15:39:57.126Z,97848.75
2022-11-15T15:42:24.309Z,97849.75
2022-11-15T15:44:51.835Z,97853.06
2022-11-15T15:47:24.009Z,97849.25
2022-11-15T15:49:51.435Z,97845.78
2022-11-15T15:52:18.564Z,97847.03
2022-11-15T15:54:45.129Z,97848.00
2022-11-15T15:57:15.933Z,97836.91
2022-11-15T15:59:42.968Z,97837.13
2022-11-15T16:02:13.744Z,97838.88
2022-11-15T16:04:40.905Z,97836.88
2022-11-15T16:07:18.603Z,97827.63
2022-11-15T16:10:03.618Z,97831.34
2022-11-15T16:12:36.423Z,97822.56
2022-11-15T16:15:04.245Z,97822.09
2022-11-15T16:17:38.897Z,97809.03
2022-11-15T16:20:06.861Z,97814.69
2022-11-15T16:22:33.520Z,97810.84
2022-11-15T16:25:00.100Z,97802.84
2022-11-15T16:27:26.770Z,97802.09
2022-11-15T16:29:53.351Z,97806.19
2022-11-15T16:32:20.023Z,97803.34
2022-11-15T16:34:49.214Z,97804.41
2022-11-15T16:37:34.285Z,97805.03
2022-11-15T16:40:01.312Z,97800.63
2022-11-15T16:42:28.090Z,97797.63
2022-11-15T16:44:54.699Z,97794.66
2022-11-15T16:47:22.774Z,97797.88
2022-11-15T16:49:49.402Z,97803.78
2022-11-15T16:52:21.064Z,97800.44
2022-11-15T16:54:48.085Z,97799.09
2022-11-15T16:57:16.422Z,97804.28
2022-11-15T16:59:43.018Z,97801.28
2022-11-15T17:02:13.163Z,97796.28
2022-11-15T17:04:40.045Z,97795.91
2022-11-15T17:07:06.784Z,97793.91
2022-11-15T17:09:34.211Z,97804.00
2022-11-15T17:12:00.833Z,97801.53
2022-11-15T17:14:27.460Z,97804.97
2022-11-15T17:16:56.659Z,97792.16
2022-11-15T17:19:23.323Z,97792.78
2022-11-15T17:21:50.125Z,97780.56
2022-11-15T17:24:17.301Z,97785.34
2022-11-15T17:26:44.178Z,97775.22
2022-11-15T17:29:10.993Z,97771.16
2022-11-15T17:31:38.365Z,97755.63
2022-11-15T17:34:06.601Z,97750.41
2022-11-15T17:36:33.937Z,97752.16
2022-11-15T17:39:00.676Z,97755.09
2022-11-15T17:41:28.964Z,97747.25
2022-11-15T17:44:00.342Z,97753.88
2022-11-15T17:46:28.420Z,97743.16
2022-11-15T17:48:56.590Z,97747.94
2022-11-15T17:51:26.297Z,97744.97
2022-11-15T17:53:53.203Z,97739.81
2022-11-15T17:56:24.912Z,97744.00
2022-11-15T17:58:54.917Z,97740.66
2022-11-15T18:01:27.414Z,97736.72
2022-11-15T18:03:55.440Z,97734.09
2022-11-15T18:06:24.319Z,97732.59
2022-11-15T18:08:53.560Z,97738.25
2022-11-15T18:11:27.368Z,97730.38
2022-11-15T18:14:00.106Z,97729.63
2022-11-15T18:16:30.835Z,97726.69
2022-11-15T18:18:58.061Z,97732.69
2022-11-15T18:21:31.022Z,97724.41
2022-11-15T18:24:00.393Z,97727.91
2022-11-15T18:26:29.429Z,97723.72
2022-11-15T18:29:03.086Z,97712.88
2022-11-15T18:31:30.877Z,97716.72
2022-11-15T18:34:00.613Z,97717.41
2022-11-15T18:36:29.917Z,97712.81
2022-11-15T18:39:06.901Z,97711.78
2022-11-15T18:41:34.505Z,97714.09
2022-11-15T18:44:02.663Z,97714.09
2022-11-15T18:46:32.174Z,97711.75
2022-11-15T18:49:02.025Z,97715.31
2022-11-15T18:51:31.780Z,97703.88
2022-11-15T18:54:01.038Z,97699.34
2022-11-15T18:56:29.798Z,97703.75
2022-11-15T18:58:59.028Z,97691.19
2022-11-15T19:01:29.985Z,97690.16
2022-11-15T19:03:58.591Z,97688.22
2022-11-15T19:06:28.944Z,97686.72
2022-11-15T19:08:58.210Z,97679.38
2022-11-15T19:11:35.457Z,97678.97
2022-11-15T19:14:05.789Z,97676.38
2022-11-15T19:16:35.950Z,97678.44
2022-11-15T19:19:07.836Z,97684.75
2022-11-15T19:21:34.894Z,97676.00
2022-11-15T19:24:01.950Z,97672.19
2022-11-15T19:26:29.557Z,97672.19
2022-11-15T19:28:59.843Z,97672.59
2022-11-15T19:31:29.345Z,97665.41
2022-11-15T19:33:58.677Z,97667.66
2022-11-15T19:36:45.478Z,97662.59
2022-11-15T19:39:14.540Z,97660.88
2022-11-15T19:41:43.250Z,97659.16
2022-11-15T19:44:11.882Z,97659.38
2022-11-15T19:46:39.166Z,97655.28
2022-11-15T19:49:07.927Z,97658.50
2022-11-15T19:51:35.387Z,97652.63
2022-11-15T19:54:06.435Z,97652.22
2022-11-15T19:56:34.728Z,97650.25
2022-11-15T19:59:02.284Z,97652.09
2022-11-15T20:01:32.444Z,97651.03
2022-11-15T20:04:00.305Z,97652.25
2022-11-15T20:06:33.620Z,97642.91
2022-11-15T20:09:00.577Z,97640.91
2022-11-15T20:11:28.004Z,97635.75
2022-11-15T20:14:01.966Z,97633.53
2022-11-15T20:16:29.233Z,97625.66
2022-11-15T20:18:55.898Z,97626.38
2022-11-15T20:21:22.931Z,97626.59
2022-11-15T20:23:50.717Z,97629.31
2022-11-15T20:26:19.173Z,97627.31
2022-11-15T20:28:45.914Z,97623.66
2022-11-15T20:31:13.249Z,97626.59
2022-11-15T20:33:40.351Z,97622.31
2022-11-15T20:36:12.576Z,97623.38
2022-11-15T20:38:39.498Z,97620.69
2022-11-15T20:41:06.695Z,97615.91
2022-11-15T20:43:33.566Z,97627.13
2022-11-15T20:46:00.137Z,97617.78
2022-11-15T20:48:27.182Z,97620.00
2022-11-15T20:51:09.306Z,97616.88
2022-11-15T20:53:35.976Z,97609.38
2022-11-15T20:56:16.330Z,97607.88
2022-11-15T20:58:45.596Z,97603.94
2022-11-15T21:01:16.168Z,97590.88
2022-11-15T21:03:43.663Z,97594.59
2022-11-15T21:06:11.182Z,97590.13
2022-11-15T21:08:57.431Z,97584.47
2022-11-15T21:11:43.764Z,97583.41
2022-11-15T21:14:10.818Z,97584.25
2022-11-15T21:16:38.774Z,97586.19
2022-11-15T21:19:06.502Z,97581.03
2022-11-15T21:21:33.772Z,97582.25
2022-11-15T21:24:04.348Z,97573.88
2022-11-15T21:26:31.083Z,97571.19
2022-11-15T21:28:57.698Z,97568.22
2022-11-15T21:31:24.694Z,97565.13
2022-11-15T21:33:51.334Z,97552.34
2022-11-15T21:36:17.957Z,97555.41
2022-11-15T21:38:44.601Z,97553.47
2022-11-15T21:41:11.205Z,97552.44
2022-11-15T21:43:37.797Z,97551.94
2022-11-15T21:46:07.274Z,97554.91
2022-11-15T21:48:35.700Z,97549.00
2022-11-15T21:51:09.697Z,97547.25
2022-11-15T21:53:36.362Z,97542.06
2022-11-15T21:56:03.879Z,97546.69
2022-11-15T21:58:31.370Z,97542.06
2022-11-15T22:01:18.218Z,97543.31
2022-11-15T22:03:45.579Z,97534.09
2022-11-15T22:06:17.497Z,97535.66
2022-11-15T22:08:45.900Z,97539.88
2022-11-15T22:11:12.965Z,97533.22
2022-11-15T22:13:39.825Z,97530.38
2022-11-15T22:16:07.523Z,97533.09
2022-11-15T22:18:34.782Z,97534.69
2022-11-15T22:21:12.940Z,97535.91
2022-11-15T22:23:40.770Z,97529.66
2022-11-15T22:26:11.179Z,97520.66
2022-11-15T22:28:37.934Z,97519.19
2022-11-15T22:31:05.847Z,97507.63
2022-11-15T22:33:34.334Z,97515.03
2022-11-15T22:36:01.833Z,97504.41
2022-11-15T22:38:30.344Z,97505.78
2022-11-15T22:40:57.996Z,97502.09
2022-11-15T22:43:26.503Z,97508.50
2022-11-15T22:46:00.203Z,97500.72
2022-11-15T22:48:36.633Z,97495.44
2022-11-15T22:51:05.144Z,97507.84
2022-11-15T22:53:31.964Z,97497.13
2022-11-15T22:56:01.497Z,97496.03
2022-11-15T22:58:31.431Z,97501.69
2022-11-15T23:01:01.569Z,97490.13
2022-11-15T23:03:29.836Z,97487.16
2022-11-15T23:06:03.995Z,97484.94
2022-11-15T23:08:30.854Z,97479.03
2022-11-15T23:11:20.087Z,97475.34
2022-11-15T23:13:46.863Z,97478.03
2022-11-15T23:16:22.238Z,97477.84
2022-11-15T23:18:57.045Z,97475.59
2022-11-15T23:21:52.785Z,97475.09
2022-11-15T23:24:20.404Z,97465.25
2022-11-15T23:26:50.122Z,97462.78
2022-11-15T23:29:19.352Z,97461.06
2022-11-15T23:32:05.668Z,97467.47
2022-11-15T23:34:36.542Z,97460.06
2022-11-15T23:37:04.055Z,97468.94
2022-11-15T23:39:30.794Z,97454.41
2022-11-15T23:41:57.633Z,97461.44
2022-11-15T23:44:25.112Z,97462.03
2022-11-15T23:46:52.771Z,97465.13
2022-11-15T23:49:20.226Z,97457.47
2022-11-15T23:51:47.579Z,97453.91
2022-11-15T23:54:14.352Z,97452.22
2022-11-15T23:56:42.200Z,97450.09
2022-11-15T23:59:08.883Z,97451.22
